sensor_id;sensor_type;location;lat;lon;timestamp;P1;durP1;ratioP1;P2;durP2;ratioP2
11743;SDS011;5929;51.906;7.674;2023-04-24T00:02:19;2.50;;;1.00;;
11743;SDS011;5929;51.906;7.674;2023-04-24T00:04:48;2.60;;;0.90;;
11743;SDS011;5929;51.906;7.674;2023-04-24T00:07:15;4.93;;;1.70;;
11743;SDS011;5929;51.906;7.674;2023-04-24T00:09:42;2.55;;;0.93;;
11743;SDS011;5929;51.906;7.674;2023-04-24T00:12:08;4.35;;;0.93;;
11743;SDS011;5929;51.906;7.674;2023-04-24T00:14:35;3.10;;;1.00;;
11743;SDS011;5929;51.906;7.674;2023-04-24T00:17:04;3.83;;;1.10;;
11743;SDS011;5929;51.906;7.674;2023-04-24T00:19:31;2.25;;;0.95;;
11743;SDS011;5929;51.906;7.674;2023-04-24T00:21:59;2.10;;;0.90;;
11743;SDS011;5929;51.906;7.674;2023-04-24T00:24:26;2.38;;;0.80;;
11743;SDS011;5929;51.906;7.674;2023-04-24T00:26:55;6.22;;;0.90;;
11743;SDS011;5929;51.906;7.674;2023-04-24T00:29:22;3.30;;;0.75;;
11743;SDS011;5929;51.906;7.674;2023-04-24T00:31:49;2.42;;;0.90;;
11743;SDS011;5929;51.906;7.674;2023-04-24T00:34:15;2.28;;;0.60;;
11743;SDS011;5929;51.906;7.674;2023-04-24T00:36:43;2.58;;;0.88;;
11743;SDS011;5929;51.906;7.674;2023-04-24T00:39:11;3.42;;;0.75;;
11743;SDS011;5929;51.906;7.674;2023-04-24T00:41:38;2.03;;;0.70;;
11743;SDS011;5929;51.906;7.674;2023-04-24T00:44:05;3.22;;;0.70;;
11743;SDS011;5929;51.906;7.674;2023-04-24T00:46:32;2.58;;;0.70;;
11743;SDS011;5929;51.906;7.674;2023-04-24T00:48:59;3.35;;;0.90;;
11743;SDS011;5929;51.906;7.674;2023-04-24T00:51:25;4.30;;;0.80;;
11743;SDS011;5929;51.906;7.674;2023-04-24T00:53:52;2.67;;;0.80;;
11743;SDS011;5929;51.906;7.674;2023-04-24T00:56:21;2.92;;;0.77;;
11743;SDS011;5929;51.906;7.674;2023-04-24T00:58:48;4.40;;;0.88;;
11743;SDS011;5929;51.906;7.674;2023-04-24T01:01:15;2.30;;;0.82;;
11743;SDS011;5929;51.906;7.674;2023-04-24T01:03:43;1.92;;;0.80;;
11743;SDS011;5929;51.906;7.674;2023-04-24T01:06:10;3.00;;;0.80;;
11743;SDS011;5929;51.906;7.674;2023-04-24T01:08:38;3.28;;;0.90;;
11743;SDS011;5929;51.906;7.674;2023-04-24T01:11:05;2.60;;;0.90;;
11743;SDS011;5929;51.906;7.674;2023-04-24T01:13:34;3.95;;;0.82;;
11743;SDS011;5929;51.906;7.674;2023-04-24T01:16:01;3.20;;;1.20;;
11743;SDS011;5929;51.906;7.674;2023-04-24T01:18:28;1.77;;;0.70;;
11743;SDS011;5929;51.906;7.674;2023-04-24T01:20:57;3.65;;;0.70;;
11743;SDS011;5929;51.906;7.674;2023-04-24T01:23:26;5.00;;;0.70;;
11743;SDS011;5929;51.906;7.674;2023-04-24T01:25:53;2.55;;;0.80;;
11743;SDS011;5929;51.906;7.674;2023-04-24T01:28:22;2.47;;;0.80;;
11743;SDS011;5929;51.906;7.674;2023-04-24T01:30:49;4.55;;;0.90;;
11743;SDS011;5929;51.906;7.674;2023-04-24T01:33:16;2.28;;;0.73;;
11743;SDS011;5929;51.906;7.674;2023-04-24T01:35:43;3.47;;;1.08;;
11743;SDS011;5929;51.906;7.674;2023-04-24T01:38:11;3.17;;;0.75;;
11743;SDS011;5929;51.906;7.674;2023-04-24T01:40:39;3.83;;;1.13;;
11743;SDS011;5929;51.906;7.674;2023-04-24T01:43:06;5.30;;;1.13;;
11743;SDS011;5929;51.906;7.674;2023-04-24T01:45:33;3.50;;;0.88;;
11743;SDS011;5929;51.906;7.674;2023-04-24T01:48:00;4.10;;;1.10;;
11743;SDS011;5929;51.906;7.674;2023-04-24T01:50:29;3.35;;;1.10;;
11743;SDS011;5929;51.906;7.674;2023-04-24T01:52:56;2.95;;;1.00;;
11743;SDS011;5929;51.906;7.674;2023-04-24T01:55:23;3.78;;;1.10;;
11743;SDS011;5929;51.906;7.674;2023-04-24T01:57:51;3.22;;;1.20;;
11743;SDS011;5929;51.906;7.674;2023-04-24T02:00:20;2.22;;;1.00;;
11743;SDS011;5929;51.906;7.674;2023-04-24T02:02:47;2.85;;;1.10;;
11743;SDS011;5929;51.906;7.674;2023-04-24T02:05:14;3.20;;;1.15;;
11743;SDS011;5929;51.906;7.674;2023-04-24T02:07:40;2.85;;;1.23;;
11743;SDS011;5929;51.906;7.674;2023-04-24T02:10:08;3.53;;;0.95;;
11743;SDS011;5929;51.906;7.674;2023-04-24T02:12:35;2.42;;;1.13;;
11743;SDS011;5929;51.906;7.674;2023-04-24T02:15:04;4.15;;;1.15;;
11743;SDS011;5929;51.906;7.674;2023-04-24T02:17:31;3.17;;;1.35;;
11743;SDS011;5929;51.906;7.674;2023-04-24T02:19:58;4.38;;;1.60;;
11743;SDS011;5929;51.906;7.674;2023-04-24T02:22:25;2.97;;;1.30;;
11743;SDS011;5929;51.906;7.674;2023-04-24T02:24:52;4.82;;;1.70;;
11743;SDS011;5929;51.906;7.674;2023-04-24T02:27:18;5.13;;;1.90;;
11743;SDS011;5929;51.906;7.674;2023-04-24T02:29:45;3.30;;;1.40;;
11743;SDS011;5929;51.906;7.674;2023-04-24T02:32:13;3.90;;;1.77;;
11743;SDS011;5929;51.906;7.674;2023-04-24T02:34:41;6.20;;;1.88;;
11743;SDS011;5929;51.906;7.674;2023-04-24T02:37:07;4.05;;;1.83;;
11743;SDS011;5929;51.906;7.674;2023-04-24T02:39:34;3.63;;;1.90;;
11743;SDS011;5929;51.906;7.674;2023-04-24T02:42:01;5.82;;;2.10;;
11743;SDS011;5929;51.906;7.674;2023-04-24T02:44:28;5.95;;;2.33;;
11743;SDS011;5929;51.906;7.674;2023-04-24T02:46:55;6.20;;;2.92;;
11743;SDS011;5929;51.906;7.674;2023-04-24T02:49:23;5.75;;;2.58;;
11743;SDS011;5929;51.906;7.674;2023-04-24T02:51:51;6.20;;;2.88;;
11743;SDS011;5929;51.906;7.674;2023-04-24T02:54:17;6.43;;;4.00;;
11743;SDS011;5929;51.906;7.674;2023-04-24T02:56:44;9.70;;;4.82;;
11743;SDS011;5929;51.906;7.674;2023-04-24T02:59:11;7.57;;;4.47;;
11743;SDS011;5929;51.906;7.674;2023-04-24T03:01:38;8.77;;;5.47;;
11743;SDS011;5929;51.906;7.674;2023-04-24T03:04:05;8.95;;;6.25;;
11743;SDS011;5929;51.906;7.674;2023-04-24T03:06:33;10.18;;;6.15;;
11743;SDS011;5929;51.906;7.674;2023-04-24T03:09:00;8.55;;;6.20;;
11743;SDS011;5929;51.906;7.674;2023-04-24T03:11:28;9.02;;;5.40;;
11743;SDS011;5929;51.906;7.674;2023-04-24T03:13:55;7.65;;;5.07;;
11743;SDS011;5929;51.906;7.674;2023-04-24T03:16:22;7.93;;;3.92;;
11743;SDS011;5929;51.906;7.674;2023-04-24T03:18:48;6.63;;;3.72;;
11743;SDS011;5929;51.906;7.674;2023-04-24T03:21:15;6.70;;;3.97;;
11743;SDS011;5929;51.906;7.674;2023-04-24T03:23:43;8.68;;;5.22;;
11743;SDS011;5929;51.906;7.674;2023-04-24T03:26:10;7.45;;;4.53;;
11743;SDS011;5929;51.906;7.674;2023-04-24T03:28:37;8.23;;;5.00;;
11743;SDS011;5929;51.906;7.674;2023-04-24T03:31:04;9.85;;;4.53;;
11743;SDS011;5929;51.906;7.674;2023-04-24T03:33:30;6.30;;;4.65;;
11743;SDS011;5929;51.906;7.674;2023-04-24T03:35:57;8.27;;;5.03;;
11743;SDS011;5929;51.906;7.674;2023-04-24T03:38:24;7.25;;;4.90;;
11743;SDS011;5929;51.906;7.674;2023-04-24T03:40:52;7.82;;;5.38;;
11743;SDS011;5929;51.906;7.674;2023-04-24T03:43:19;9.10;;;5.75;;
11743;SDS011;5929;51.906;7.674;2023-04-24T03:45:46;9.48;;;5.68;;
11743;SDS011;5929;51.906;7.674;2023-04-24T03:48:13;12.65;;;7.13;;
11743;SDS011;5929;51.906;7.674;2023-04-24T03:50:39;10.00;;;5.90;;
11743;SDS011;5929;51.906;7.674;2023-04-24T03:53:06;9.82;;;6.18;;
11743;SDS011;5929;51.906;7.674;2023-04-24T03:55:33;9.02;;;6.28;;
11743;SDS011;5929;51.906;7.674;2023-04-24T03:58:01;8.57;;;6.05;;
11743;SDS011;5929;51.906;7.674;2023-04-24T04:00:28;10.05;;;6.75;;
11743;SDS011;5929;51.906;7.674;2023-04-24T04:03:00;11.90;;;7.55;;
11743;SDS011;5929;51.906;7.674;2023-04-24T04:05:27;12.48;;;8.48;;
11743;SDS011;5929;51.906;7.674;2023-04-24T04:07:54;12.18;;;9.05;;
11743;SDS011;5929;51.906;7.674;2023-04-24T04:10:21;11.68;;;9.30;;
11743;SDS011;5929;51.906;7.674;2023-04-24T04:12:47;13.63;;;9.63;;
11743;SDS011;5929;51.906;7.674;2023-04-24T04:15:16;16.73;;;10.25;;
11743;SDS011;5929;51.906;7.674;2023-04-24T04:17:43;17.20;;;10.00;;
11743;SDS011;5929;51.906;7.674;2023-04-24T04:20:13;17.00;;;10.65;;
11743;SDS011;5929;51.906;7.674;2023-04-24T04:22:39;15.70;;;11.18;;
11743;SDS011;5929;51.906;7.674;2023-04-24T04:25:06;15.57;;;11.10;;
11743;SDS011;5929;51.906;7.674;2023-04-24T04:27:34;18.17;;;11.25;;
11743;SDS011;5929;51.906;7.674;2023-04-24T04:30:01;17.45;;;10.80;;
11743;SDS011;5929;51.906;7.674;2023-04-24T04:32:31;16.25;;;12.55;;
11743;SDS011;5929;51.906;7.674;2023-04-24T04:34:58;20.67;;;12.90;;
11743;SDS011;5929;51.906;7.674;2023-04-24T04:37:28;17.77;;;12.25;;
11743;SDS011;5929;51.906;7.674;2023-04-24T04:39:55;19.20;;;11.68;;
11743;SDS011;5929;51.906;7.674;2023-04-24T04:42:23;18.58;;;12.40;;
11743;SDS011;5929;51.906;7.674;2023-04-24T04:44:49;19.58;;;12.38;;
11743;SDS011;5929;51.906;7.674;2023-04-24T04:47:16;21.27;;;13.23;;
11743;SDS011;5929;51.906;7.674;2023-04-24T04:49:45;18.27;;;13.05;;
11743;SDS011;5929;51.906;7.674;2023-04-24T04:52:12;17.10;;;12.52;;
11743;SDS011;5929;51.906;7.674;2023-04-24T04:54:39;21.98;;;13.35;;
11743;SDS011;5929;51.906;7.674;2023-04-24T04:57:05;19.98;;;12.18;;
11743;SDS011;5929;51.906;7.674;2023-04-24T04:59:33;17.58;;;12.68;;
11743;SDS011;5929;51.906;7.674;2023-04-24T05:02:00;19.92;;;12.35;;
11743;SDS011;5929;51.906;7.674;2023-04-24T05:04:27;19.45;;;12.35;;
11743;SDS011;5929;51.906;7.674;2023-04-24T05:06:55;21.25;;;12.27;;
11743;SDS011;5929;51.906;7.674;2023-04-24T05:09:24;18.58;;;12.55;;
11743;SDS011;5929;51.906;7.674;2023-04-24T05:11:54;20.90;;;13.20;;
11743;SDS011;5929;51.906;7.674;2023-04-24T05:14:21;21.90;;;13.18;;
11743;SDS011;5929;51.906;7.674;2023-04-24T05:16:48;22.95;;;12.43;;
11743;SDS011;5929;51.906;7.674;2023-04-24T05:19:15;24.00;;;13.13;;
11743;SDS011;5929;51.906;7.674;2023-04-24T05:21:42;22.25;;;12.70;;
11743;SDS011;5929;51.906;7.674;2023-04-24T05:24:11;17.20;;;12.25;;
11743;SDS011;5929;51.906;7.674;2023-04-24T05:26:37;19.27;;;12.20;;
11743;SDS011;5929;51.906;7.674;2023-04-24T05:29:04;23.42;;;13.55;;
11743;SDS011;5929;51.906;7.674;2023-04-24T05:31:32;23.67;;;13.20;;
11743;SDS011;5929;51.906;7.674;2023-04-24T05:33:59;18.27;;;13.13;;
11743;SDS011;5929;51.906;7.674;2023-04-24T05:36:25;19.60;;;13.80;;
11743;SDS011;5929;51.906;7.674;2023-04-24T05:38:53;18.98;;;13.40;;
11743;SDS011;5929;51.906;7.674;2023-04-24T05:41:21;23.38;;;13.55;;
11743;SDS011;5929;51.906;7.674;2023-04-24T05:43:48;19.60;;;12.43;;
11743;SDS011;5929;51.906;7.674;2023-04-24T05:46:16;17.17;;;12.18;;
11743;SDS011;5929;51.906;7.674;2023-04-24T05:48:43;16.50;;;12.27;;
11743;SDS011;5929;51.906;7.674;2023-04-24T05:51:09;20.52;;;13.25;;
11743;SDS011;5929;51.906;7.674;2023-04-24T05:53:36;19.05;;;12.65;;
11743;SDS011;5929;51.906;7.674;2023-04-24T05:56:03;17.30;;;11.73;;
11743;SDS011;5929;51.906;7.674;2023-04-24T05:58:31;18.23;;;12.13;;
11743;SDS011;5929;51.906;7.674;2023-04-24T06:00:58;21.05;;;12.65;;
11743;SDS011;5929;51.906;7.674;2023-04-24T06:03:26;18.80;;;12.40;;
11743;SDS011;5929;51.906;7.674;2023-04-24T06:05:53;21.42;;;11.77;;
11743;SDS011;5929;51.906;7.674;2023-04-24T06:08:20;18.95;;;11.90;;
11743;SDS011;5929;51.906;7.674;2023-04-24T06:10:47;18.23;;;11.40;;
11743;SDS011;5929;51.906;7.674;2023-04-24T06:13:14;19.08;;;12.18;;
11743;SDS011;5929;51.906;7.674;2023-04-24T06:15:43;15.65;;;11.23;;
11743;SDS011;5929;51.906;7.674;2023-04-24T06:18:10;17.08;;;11.05;;
11743;SDS011;5929;51.906;7.674;2023-04-24T06:20:37;17.08;;;11.30;;
11743;SDS011;5929;51.906;7.674;2023-04-24T06:23:04;16.13;;;10.82;;
11743;SDS011;5929;51.906;7.674;2023-04-24T06:25:31;17.95;;;11.15;;
11743;SDS011;5929;51.906;7.674;2023-04-24T06:28:00;17.13;;;10.07;;
11743;SDS011;5929;51.906;7.674;2023-04-24T06:30:27;19.77;;;10.60;;
11743;SDS011;5929;51.906;7.674;2023-04-24T06:32:55;17.02;;;10.90;;
11743;SDS011;5929;51.906;7.674;2023-04-24T06:35:22;18.38;;;10.40;;
11743;SDS011;5929;51.906;7.674;2023-04-24T06:37:49;16.98;;;11.18;;
11743;SDS011;5929;51.906;7.674;2023-04-24T06:40:17;15.90;;;10.90;;
11743;SDS011;5929;51.906;7.674;2023-04-24T06:42:44;16.40;;;10.80;;
11743;SDS011;5929;51.906;7.674;2023-04-24T06:45:11;15.75;;;10.20;;
11743;SDS011;5929;51.906;7.674;2023-04-24T06:47:38;15.95;;;9.70;;
11743;SDS011;5929;51.906;7.674;2023-04-24T06:50:09;13.25;;;8.88;;
11743;SDS011;5929;51.906;7.674;2023-04-24T06:52:36;12.05;;;8.85;;
11743;SDS011;5929;51.906;7.674;2023-04-24T06:55:03;15.40;;;8.13;;
11743;SDS011;5929;51.906;7.674;2023-04-24T06:57:31;14.30;;;8.45;;
11743;SDS011;5929;51.906;7.674;2023-04-24T06:59:58;13.48;;;8.82;;
11743;SDS011;5929;51.906;7.674;2023-04-24T07:02:24;76.50;;;17.75;;
11743;SDS011;5929;51.906;7.674;2023-04-24T07:04:54;13.40;;;8.90;;
11743;SDS011;5929;51.906;7.674;2023-04-24T07:07:23;13.48;;;9.00;;
11743;SDS011;5929;51.906;7.674;2023-04-24T07:09:50;13.07;;;8.32;;
11743;SDS011;5929;51.906;7.674;2023-04-24T07:12:17;11.70;;;8.40;;
11743;SDS011;5929;51.906;7.674;2023-04-24T07:14:48;15.20;;;9.07;;
11743;SDS011;5929;51.906;7.674;2023-04-24T07:17:16;11.23;;;8.07;;
11743;SDS011;5929;51.906;7.674;2023-04-24T07:19:43;13.85;;;8.65;;
11743;SDS011;5929;51.906;7.674;2023-04-24T07:22:10;11.85;;;8.15;;
11743;SDS011;5929;51.906;7.674;2023-04-24T07:24:43;12.30;;;9.27;;
11743;SDS011;5929;51.906;7.674;2023-04-24T07:27:10;13.95;;;7.97;;
11743;SDS011;5929;51.906;7.674;2023-04-24T07:29:37;11.00;;;8.43;;
11743;SDS011;5929;51.906;7.674;2023-04-24T07:32:05;9.63;;;7.47;;
11743;SDS011;5929;51.906;7.674;2023-04-24T07:34:32;11.88;;;7.38;;
11743;SDS011;5929;51.906;7.674;2023-04-24T07:36:59;11.70;;;7.78;;
11743;SDS011;5929;51.906;7.674;2023-04-24T07:39:26;11.95;;;7.03;;
11743;SDS011;5929;51.906;7.674;2023-04-24T07:41:55;10.80;;;6.50;;
11743;SDS011;5929;51.906;7.674;2023-04-24T07:44:23;10.48;;;6.50;;
11743;SDS011;5929;51.906;7.674;2023-04-24T07:46:50;11.65;;;6.30;;
11743;SDS011;5929;51.906;7.674;2023-04-24T07:49:17;10.60;;;6.18;;
11743;SDS011;5929;51.906;7.674;2023-04-24T07:51:44;10.00;;;5.78;;
11743;SDS011;5929;51.906;7.674;2023-04-24T07:54:11;11.13;;;5.68;;
11743;SDS011;5929;51.906;7.674;2023-04-24T07:56:38;8.27;;;5.60;;
11743;SDS011;5929;51.906;7.674;2023-04-24T07:59:09;7.90;;;5.38;;
11743;SDS011;5929;51.906;7.674;2023-04-24T08:01:36;10.82;;;5.38;;
11743;SDS011;5929;51.906;7.674;2023-04-24T08:04:03;7.90;;;5.10;;
11743;SDS011;5929;51.906;7.674;2023-04-24T08:06:30;8.02;;;4.97;;
11743;SDS011;5929;51.906;7.674;2023-04-24T08:08:57;7.13;;;5.10;;
11743;SDS011;5929;51.906;7.674;2023-04-24T08:11:25;7.70;;;4.82;;
11743;SDS011;5929;51.906;7.674;2023-04-24T08:13:52;7.15;;;4.28;;
11743;SDS011;5929;51.906;7.674;2023-04-24T08:16:21;6.80;;;4.72;;
11743;SDS011;5929;51.906;7.674;2023-04-24T08:18:48;7.00;;;4.35;;
11743;SDS011;5929;51.906;7.674;2023-04-24T08:21:16;7.95;;;3.92;;
11743;SDS011;5929;51.906;7.674;2023-04-24T08:23:43;7.85;;;5.07;;
11743;SDS011;5929;51.906;7.674;2023-04-24T08:26:13;6.55;;;3.88;;
11743;SDS011;5929;51.906;7.674;2023-04-24T08:28:40;8.55;;;4.88;;
11743;SDS011;5929;51.906;7.674;2023-04-24T08:31:06;7.55;;;4.57;;
11743;SDS011;5929;51.906;7.674;2023-04-24T08:33:35;6.20;;;4.28;;
11743;SDS011;5929;51.906;7.674;2023-04-24T08:36:02;9.52;;;4.88;;
11743;SDS011;5929;51.906;7.674;2023-04-24T08:38:29;6.97;;;4.60;;
11743;SDS011;5929;51.906;7.674;2023-04-24T08:40:57;7.47;;;4.32;;
11743;SDS011;5929;51.906;7.674;2023-04-24T08:43:26;5.95;;;3.83;;
11743;SDS011;5929;51.906;7.674;2023-04-24T08:45:55;8.98;;;4.07;;
11743;SDS011;5929;51.906;7.674;2023-04-24T08:48:22;7.57;;;4.07;;
11743;SDS011;5929;51.906;7.674;2023-04-24T08:50:51;8.88;;;3.75;;
11743;SDS011;5929;51.906;7.674;2023-04-24T08:53:18;6.43;;;3.80;;
11743;SDS011;5929;51.906;7.674;2023-04-24T08:55:46;6.20;;;4.07;;
11743;SDS011;5929;51.906;7.674;2023-04-24T08:58:13;5.18;;;3.45;;
11743;SDS011;5929;51.906;7.674;2023-04-24T09:00:43;6.60;;;3.95;;
11743;SDS011;5929;51.906;7.674;2023-04-24T09:03:13;7.10;;;3.70;;
11743;SDS011;5929;51.906;7.674;2023-04-24T09:05:41;5.65;;;3.90;;
11743;SDS011;5929;51.906;7.674;2023-04-24T09:08:12;5.50;;;3.67;;
11743;SDS011;5929;51.906;7.674;2023-04-24T09:10:40;6.78;;;3.50;;
11743;SDS011;5929;51.906;7.674;2023-04-24T09:13:10;5.28;;;2.95;;
11743;SDS011;5929;51.906;7.674;2023-04-24T09:15:36;5.82;;;2.97;;
11743;SDS011;5929;51.906;7.674;2023-04-24T09:18:04;5.32;;;3.00;;
11743;SDS011;5929;51.906;7.674;2023-04-24T09:20:31;5.28;;;2.88;;
11743;SDS011;5929;51.906;7.674;2023-04-24T09:22:58;4.78;;;2.92;;
11743;SDS011;5929;51.906;7.674;2023-04-24T09:25:30;4.57;;;2.35;;
11743;SDS011;5929;51.906;7.674;2023-04-24T09:28:00;8.88;;;3.40;;
11743;SDS011;5929;51.906;7.674;2023-04-24T09:30:27;5.28;;;3.42;;
11743;SDS011;5929;51.906;7.674;2023-04-24T09:33:09;5.70;;;3.00;;
11743;SDS011;5929;51.906;7.674;2023-04-24T09:35:40;6.20;;;3.70;;
11743;SDS011;5929;51.906;7.674;2023-04-24T09:38:08;5.70;;;3.95;;
11743;SDS011;5929;51.906;7.674;2023-04-24T09:40:36;7.38;;;4.20;;
11743;SDS011;5929;51.906;7.674;2023-04-24T09:43:03;7.07;;;4.97;;
11743;SDS011;5929;51.906;7.674;2023-04-24T09:45:34;7.30;;;4.93;;
11743;SDS011;5929;51.906;7.674;2023-04-24T09:48:02;8.52;;;6.43;;
11743;SDS011;5929;51.906;7.674;2023-04-24T09:50:31;10.35;;;7.20;;
11743;SDS011;5929;51.906;7.674;2023-04-24T09:53:01;11.35;;;7.30;;
11743;SDS011;5929;51.906;7.674;2023-04-24T09:55:29;14.57;;;8.60;;
11743;SDS011;5929;51.906;7.674;2023-04-24T09:57:58;13.30;;;8.25;;
11743;SDS011;5929;51.906;7.674;2023-04-24T10:00:30;9.30;;;7.32;;
11743;SDS011;5929;51.906;7.674;2023-04-24T10:02:58;11.98;;;8.52;;
11743;SDS011;5929;51.906;7.674;2023-04-24T10:05:27;9.82;;;7.63;;
11743;SDS011;5929;51.906;7.674;2023-04-24T10:07:59;10.02;;;8.02;;
11743;SDS011;5929;51.906;7.674;2023-04-24T10:10:29;11.65;;;8.60;;
11743;SDS011;5929;51.906;7.674;2023-04-24T10:12:57;11.27;;;8.40;;
11743;SDS011;5929;51.906;7.674;2023-04-24T10:15:25;10.32;;;7.80;;
11743;SDS011;5929;51.906;7.674;2023-04-24T10:17:53;11.20;;;7.60;;
11743;SDS011;5929;51.906;7.674;2023-04-24T10:20:23;13.80;;;8.18;;
11743;SDS011;5929;51.906;7.674;2023-04-24T10:22:51;10.27;;;7.00;;
11743;SDS011;5929;51.906;7.674;2023-04-24T10:25:19;12.82;;;7.80;;
11743;SDS011;5929;51.906;7.674;2023-04-24T10:27:48;10.40;;;7.32;;
11743;SDS011;5929;51.906;7.674;2023-04-24T10:30:17;10.80;;;7.82;;
11743;SDS011;5929;51.906;7.674;2023-04-24T10:32:44;10.52;;;7.65;;
11743;SDS011;5929;51.906;7.674;2023-04-24T10:35:12;10.95;;;7.32;;
11743;SDS011;5929;51.906;7.674;2023-04-24T10:37:41;11.15;;;7.75;;
11743;SDS011;5929;51.906;7.674;2023-04-24T10:40:11;12.63;;;7.88;;
11743;SDS011;5929;51.906;7.674;2023-04-24T10:42:43;11.70;;;7.50;;
11743;SDS011;5929;51.906;7.674;2023-04-24T10:45:18;10.18;;;6.88;;
11743;SDS011;5929;51.906;7.674;2023-04-24T10:47:54;11.90;;;7.05;;
11743;SDS011;5929;51.906;7.674;2023-04-24T10:50:25;12.30;;;7.60;;
11743;SDS011;5929;51.906;7.674;2023-04-24T10:52:52;11.73;;;7.63;;
11743;SDS011;5929;51.906;7.674;2023-04-24T10:58:08;11.52;;;6.57;;
11743;SDS011;5929;51.906;7.674;2023-04-24T11:00:37;14.10;;;7.53;;
11743;SDS011;5929;51.906;7.674;2023-04-24T11:03:05;11.45;;;5.97;;
11743;SDS011;5929;51.906;7.674;2023-04-24T11:05:48;11.52;;;6.32;;
11743;SDS011;5929;51.906;7.674;2023-04-24T11:08:21;12.70;;;7.25;;
11743;SDS011;5929;51.906;7.674;2023-04-24T11:10:56;9.77;;;6.90;;
11743;SDS011;5929;51.906;7.674;2023-04-24T11:13:25;11.20;;;6.63;;
11743;SDS011;5929;51.906;7.674;2023-04-24T11:16:13;9.85;;;6.45;;
11743;SDS011;5929;51.906;7.674;2023-04-24T11:18:42;12.05;;;7.63;;
11743;SDS011;5929;51.906;7.674;2023-04-24T11:21:11;12.68;;;7.47;;
11743;SDS011;5929;51.906;7.674;2023-04-24T11:23:38;14.05;;;8.05;;
11743;SDS011;5929;51.906;7.674;2023-04-24T11:26:12;15.43;;;8.43;;
11743;SDS011;5929;51.906;7.674;2023-04-24T11:28:46;17.83;;;8.52;;
11743;SDS011;5929;51.906;7.674;2023-04-24T11:34:09;12.45;;;8.35;;
11743;SDS011;5929;51.906;7.674;2023-04-24T11:36:37;12.15;;;7.80;;
11743;SDS011;5929;51.906;7.674;2023-04-24T11:39:05;14.85;;;7.95;;
11743;SDS011;5929;51.906;7.674;2023-04-24T11:41:32;15.48;;;8.43;;
11743;SDS011;5929;51.906;7.674;2023-04-24T11:44:00;16.45;;;9.77;;
11743;SDS011;5929;51.906;7.674;2023-04-24T11:46:28;16.48;;;9.57;;
11743;SDS011;5929;51.906;7.674;2023-04-24T11:48:58;18.15;;;10.10;;
11743;SDS011;5929;51.906;7.674;2023-04-24T11:51:26;14.95;;;9.85;;
11743;SDS011;5929;51.906;7.674;2023-04-24T11:53:53;19.40;;;9.20;;
11743;SDS011;5929;51.906;7.674;2023-04-24T11:56:23;14.98;;;8.70;;
11743;SDS011;5929;51.906;7.674;2023-04-24T11:58:51;19.02;;;8.38;;
11743;SDS011;5929;51.906;7.674;2023-04-24T12:01:19;16.15;;;9.75;;
11743;SDS011;5929;51.906;7.674;2023-04-24T12:03:48;17.00;;;8.93;;
11743;SDS011;5929;51.906;7.674;2023-04-24T12:06:17;20.15;;;10.15;;
11743;SDS011;5929;51.906;7.674;2023-04-24T12:08:48;24.92;;;10.55;;
11743;SDS011;5929;51.906;7.674;2023-04-24T12:11:15;18.95;;;9.65;;
11743;SDS011;5929;51.906;7.674;2023-04-24T12:13:45;21.98;;;9.50;;
11743;SDS011;5929;51.906;7.674;2023-04-24T12:16:12;26.67;;;10.90;;
11743;SDS011;5929;51.906;7.674;2023-04-24T12:18:43;23.48;;;11.88;;
11743;SDS011;5929;51.906;7.674;2023-04-24T12:21:14;29.38;;;10.48;;
11743;SDS011;5929;51.906;7.674;2023-04-24T12:23:44;23.83;;;11.32;;
11743;SDS011;5929;51.906;7.674;2023-04-24T12:26:11;21.50;;;9.93;;
11743;SDS011;5929;51.906;7.674;2023-04-24T12:28:38;23.17;;;10.02;;
11743;SDS011;5929;51.906;7.674;2023-04-24T12:31:06;29.15;;;10.15;;
11743;SDS011;5929;51.906;7.674;2023-04-24T12:33:35;20.67;;;11.00;;
11743;SDS011;5929;51.906;7.674;2023-04-24T12:36:03;29.23;;;11.55;;
11743;SDS011;5929;51.906;7.674;2023-04-24T12:38:32;21.38;;;11.05;;
11743;SDS011;5929;51.906;7.674;2023-04-24T12:41:09;29.70;;;11.85;;
11743;SDS011;5929;51.906;7.674;2023-04-24T12:43:50;22.92;;;10.55;;
11743;SDS011;5929;51.906;7.674;2023-04-24T12:46:18;25.27;;;11.00;;
11743;SDS011;5929;51.906;7.674;2023-04-24T12:48:47;28.55;;;11.60;;
11743;SDS011;5929;51.906;7.674;2023-04-24T12:51:14;22.30;;;10.30;;
11743;SDS011;5929;51.906;7.674;2023-04-24T12:53:40;22.90;;;9.98;;
11743;SDS011;5929;51.906;7.674;2023-04-24T12:56:09;23.33;;;9.88;;
11743;SDS011;5929;51.906;7.674;2023-04-24T12:58:35;19.45;;;8.23;;
11743;SDS011;5929;51.906;7.674;2023-04-24T13:01:02;23.92;;;8.88;;
11743;SDS011;5929;51.906;7.674;2023-04-24T13:03:29;22.48;;;9.50;;
11743;SDS011;5929;51.906;7.674;2023-04-24T13:05:56;21.40;;;9.32;;
11743;SDS011;5929;51.906;7.674;2023-04-24T13:08:23;23.80;;;8.43;;
11743;SDS011;5929;51.906;7.674;2023-04-24T13:10:49;19.55;;;9.38;;
11743;SDS011;5929;51.906;7.674;2023-04-24T13:13:18;24.85;;;10.20;;
11743;SDS011;5929;51.906;7.674;2023-04-24T13:15:45;20.25;;;9.32;;
11743;SDS011;5929;51.906;7.674;2023-04-24T13:18:12;23.70;;;10.73;;
11743;SDS011;5929;51.906;7.674;2023-04-24T13:20:38;21.45;;;10.07;;
11743;SDS011;5929;51.906;7.674;2023-04-24T13:23:06;29.02;;;10.60;;
11743;SDS011;5929;51.906;7.674;2023-04-24T13:25:34;20.10;;;9.50;;
11743;SDS011;5929;51.906;7.674;2023-04-24T13:28:02;20.63;;;9.70;;
11743;SDS011;5929;51.906;7.674;2023-04-24T13:30:30;18.98;;;9.55;;
11743;SDS011;5929;51.906;7.674;2023-04-24T13:32:57;26.30;;;10.07;;
11743;SDS011;5929;51.906;7.674;2023-04-24T13:35:24;20.33;;;10.27;;
11743;SDS011;5929;51.906;7.674;2023-04-24T13:37:51;20.98;;;9.95;;
11743;SDS011;5929;51.906;7.674;2023-04-24T13:40:17;22.27;;;9.73;;
11743;SDS011;5929;51.906;7.674;2023-04-24T13:42:44;19.42;;;8.73;;
11743;SDS011;5929;51.906;7.674;2023-04-24T13:45:11;16.80;;;6.65;;
11743;SDS011;5929;51.906;7.674;2023-04-24T13:47:40;19.27;;;7.03;;
11743;SDS011;5929;51.906;7.674;2023-04-24T13:50:07;15.85;;;5.63;;
11743;SDS011;5929;51.906;7.674;2023-04-24T13:52:35;12.05;;;5.22;;
11743;SDS011;5929;51.906;7.674;2023-04-24T14:21:40;5.78;;;2.00;;
11743;SDS011;5929;51.906;7.674;2023-04-24T14:24:07;9.10;;;2.55;;
11743;SDS011;5929;51.906;7.674;2023-04-24T14:26:37;6.68;;;2.47;;
11743;SDS011;5929;51.906;7.674;2023-04-24T14:29:03;8.05;;;2.50;;
11743;SDS011;5929;51.906;7.674;2023-04-24T14:31:30;7.43;;;2.85;;
11743;SDS011;5929;51.906;7.674;2023-04-24T14:33:57;6.22;;;2.83;;
11743;SDS011;5929;51.906;7.674;2023-04-24T14:36:24;9.55;;;3.08;;
11743;SDS011;5929;51.906;7.674;2023-04-24T14:38:52;5.95;;;2.75;;
11743;SDS011;5929;51.906;7.674;2023-04-24T14:41:19;7.00;;;3.20;;
11743;SDS011;5929;51.906;7.674;2023-04-24T14:43:46;5.68;;;2.60;;
11743;SDS011;5929;51.906;7.674;2023-04-24T14:46:13;5.38;;;2.33;;
11743;SDS011;5929;51.906;7.674;2023-04-24T14:48:39;5.30;;;1.80;;
11743;SDS011;5929;51.906;7.674;2023-04-24T14:51:06;7.32;;;2.30;;
11743;SDS011;5929;51.906;7.674;2023-04-24T14:53:33;5.90;;;2.50;;
11743;SDS011;5929;51.906;7.674;2023-04-24T14:56:02;6.40;;;2.30;;
11743;SDS011;5929;51.906;7.674;2023-04-24T14:58:29;13.98;;;2.80;;
11743;SDS011;5929;51.906;7.674;2023-04-24T15:00:55;6.82;;;2.30;;
11743;SDS011;5929;51.906;7.674;2023-04-24T15:07:04;8.15;;;2.10;;
11743;SDS011;5929;51.906;7.674;2023-04-24T15:09:30;5.28;;;2.35;;
11743;SDS011;5929;51.906;7.674;2023-04-24T15:11:59;9.05;;;2.20;;
11743;SDS011;5929;51.906;7.674;2023-04-24T15:14:26;5.80;;;2.30;;
11743;SDS011;5929;51.906;7.674;2023-04-24T15:16:53;4.70;;;2.13;;
11743;SDS011;5929;51.906;7.674;2023-04-24T15:19:22;5.40;;;2.15;;
11743;SDS011;5929;51.906;7.674;2023-04-24T15:21:49;7.95;;;2.35;;
11743;SDS011;5929;51.906;7.674;2023-04-24T15:24:16;7.75;;;2.33;;
11743;SDS011;5929;51.906;7.674;2023-04-24T15:26:43;5.82;;;3.15;;
11743;SDS011;5929;51.906;7.674;2023-04-24T15:29:11;4.90;;;1.73;;
11743;SDS011;5929;51.906;7.674;2023-04-24T15:31:38;5.10;;;1.92;;